sensor_id;sensor_type;location;lat;lon;timestamp;pressure;altitude;pressure_sealevel;temperature;humidity
56737;BME280;42618;51.226;4.910;2022-12-07T00:01:12;49778.84;;;-146.94;100.00
56737;BME280;42618;51.226;4.910;2022-12-07T00:03:41;49806.75;;;-146.94;100.00
56737;BME280;42618;51.226;4.910;2022-12-07T00:06:10;49762.88;;;-146.94;100.00
56737;BME280;42618;51.226;4.910;2022-12-07T00:08:37;49818.72;;;-146.94;100.00
56737;BME280;42618;51.226;4.910;2022-12-07T00:11:05;49780.84;;;-146.94;100.00
56737;BME280;42618;51.226;4.910;2022-12-07T00:13:34;49808.75;;;-146.94;100.00
56737;BME280;42618;51.226;4.910;2022-12-07T00:16:15;49796.78;;;-146.94;100.00
56737;BME280;42618;51.226;4.910;2022-12-07T00:18:44;49794.78;;;-146.94;100.00
56737;BME280;42618;51.226;4.910;2022-12-07T00:23:38;49810.75;;;-146.94;100.00
56737;BME280;42618;51.226;4.910;2022-12-07T00:26:07;49838.66;;;-146.94;100.00
56737;BME280;42618;51.226;4.910;2022-12-07T00:28:34;49818.72;;;-146.94;100.00
56737;BME280;42618;51.226;4.910;2022-12-07T00:31:03;49814.72;;;-146.94;100.00
56737;BME280;42618;51.226;4.910;2022-12-07T00:33:31;49788.81;;;-146.94;100.00
56737;BME280;42618;51.226;4.910;2022-12-07T00:35:59;49774.84;;;-146.94;100.00
56737;BME280;42618;51.226;4.910;2022-12-07T00:38:28;49834.66;;;-146.94;100.00
56737;BME280;42618;51.226;4.910;2022-12-07T00:40:56;49776.84;;;-146.94;100.00
56737;BME280;42618;51.226;4.910;2022-12-07T00:43:24;49770.88;;;-146.94;100.00
56737;BME280;42618;51.226;4.910;2022-12-07T00:45:51;49822.69;;;-146.94;100.00
56737;BME280;42618;51.226;4.910;2022-12-07T00:48:18;49792.78;;;-146.94;100.00
56737;BME280;42618;51.226;4.910;2022-12-07T00:50:45;49816.72;;;-146.94;100.00
56737;BME280;42618;51.226;4.910;2022-12-07T00:53:12;49814.72;;;-146.94;100.00
56737;BME280;42618;51.226;4.910;2022-12-07T00:55:39;49774.84;;;-146.94;100.00
56737;BME280;42618;51.226;4.910;2022-12-07T00:58:05;49774.84;;;-146.94;100.00
56737;BME280;42618;51.226;4.910;2022-12-07T01:00:32;49792.78;;;-146.94;100.00
56737;BME280;42618;51.226;4.910;2022-12-07T01:02:59;49816.72;;;-146.94;100.00
56737;BME280;42618;51.226;4.910;2022-12-07T01:05:26;49832.66;;;-146.94;100.00
56737;BME280;42618;51.226;4.910;2022-12-07T01:07:53;49796.78;;;-146.94;100.00
56737;BME280;42618;51.226;4.910;2022-12-07T01:10:20;49802.75;;;-146.94;100.00
56737;BME280;42618;51.226;4.910;2022-12-07T01:12:46;49828.69;;;-146.94;100.00
56737;BME280;42618;51.226;4.910;2022-12-07T01:15:13;49798.78;;;-146.94;100.00
56737;BME280;42618;51.226;4.910;2022-12-07T01:17:40;49794.78;;;-146.94;100.00
56737;BME280;42618;51.226;4.910;2022-12-07T01:20:07;49818.72;;;-146.94;100.00
56737;BME280;42618;51.226;4.910;2022-12-07T01:22:38;49782.81;;;-146.94;100.00
56737;BME280;42618;51.226;4.910;2022-12-07T01:25:06;49806.75;;;-146.94;100.00
56737;BME280;42618;51.226;4.910;2022-12-07T01:27:34;49814.72;;;-146.94;100.00
56737;BME280;42618;51.226;4.910;2022-12-07T01:30:02;49792.78;;;-146.94;100.00
56737;BME280;42618;51.226;4.910;2022-12-07T01:32:30;49802.75;;;-146.94;100.00
56737;BME280;42618;51.226;4.910;2022-12-07T01:34:57;49774.84;;;-146.94;100.00
56737;BME280;42618;51.226;4.910;2022-12-07T01:37:24;49820.69;;;-146.94;100.00
56737;BME280;42618;51.226;4.910;2022-12-07T01:39:51;49810.75;;;-146.94;100.00
56737;BME280;42618;51.226;4.910;2022-12-07T01:42:18;49816.72;;;-146.94;100.00
56737;BME280;42618;51.226;4.910;2022-12-07T01:47:53;49792.78;;;-146.94;100.00
56737;BME280;42618;51.226;4.910;2022-12-07T01:50:24;49834.66;;;-146.94;100.00
56737;BME280;42618;51.226;4.910;2022-12-07T01:52:53;49806.75;;;-146.94;100.00
56737;BME280;42618;51.226;4.910;2022-12-07T01:55:23;49794.78;;;-146.94;100.00
56737;BME280;42618;51.226;4.910;2022-12-07T01:57:52;49782.81;;;-146.94;100.00
56737;BME280;42618;51.226;4.910;2022-12-07T02:00:19;49820.69;;;-146.94;100.00
56737;BME280;42618;51.226;4.910;2022-12-07T02:05:34;49796.78;;;-146.94;100.00
56737;BME280;42618;51.226;4.910;2022-12-07T02:08:02;49794.78;;;-146.94;100.00
56737;BME280;42618;51.226;4.910;2022-12-07T02:10:31;49766.88;;;-146.94;100.00
56737;BME280;42618;51.226;4.910;2022-12-07T02:13:08;49812.72;;;-146.94;100.00
56737;BME280;42618;51.226;4.910;2022-12-07T02:24:14;49786.81;;;-146.94;100.00
56737;BME280;42618;51.226;4.910;2022-12-07T02:26:52;49852.59;;;-146.94;100.00
56737;BME280;42618;51.226;4.910;2022-12-07T02:29:40;49792.78;;;-146.94;100.00
56737;BME280;42618;51.226;4.910;2022-12-07T02:38:26;49802.75;;;-146.94;100.00
56737;BME280;42618;51.226;4.910;2022-12-07T02:41:00;49800.78;;;-146.94;100.00
56737;BME280;42618;51.226;4.910;2022-12-07T02:43:34;49804.75;;;-146.94;100.00
56737;BME280;42618;51.226;4.910;2022-12-07T02:46:05;49822.69;;;-146.94;100.00
56737;BME280;42618;51.226;4.910;2022-12-07T02:48:35;49796.78;;;-146.94;100.00
56737;BME280;42618;51.226;4.910;2022-12-07T02:51:04;49798.78;;;-146.94;100.00
56737;BME280;42618;51.226;4.910;2022-12-07T02:53:41;49822.69;;;-146.94;100.00
56737;BME280;42618;51.226;4.910;2022-12-07T02:56:30;49802.75;;;-146.94;100.00
56737;BME280;42618;51.226;4.910;2022-12-07T03:07:24;49828.69;;;-146.94;100.00
56737;BME280;42618;51.226;4.910;2022-12-07T03:10:01;49838.66;;;-146.94;100.00
56737;BME280;42618;51.226;4.910;2022-12-07T03:12:40;49806.75;;;-146.94;100.00
56737;BME280;42618;51.226;4.910;2022-12-07T03:18:01;49802.75;;;-146.94;100.00
56737;BME280;42618;51.226;4.910;2022-12-07T03:20:32;49802.75;;;-146.94;100.00
56737;BME280;42618;51.226;4.910;2022-12-07T03:23:04;49798.78;;;-146.94;100.00
56737;BME280;42618;51.226;4.910;2022-12-07T03:25:34;49816.72;;;-146.94;100.00
56737;BME280;42618;51.226;4.910;2022-12-07T03:28:05;49806.75;;;-146.94;100.00
56737;BME280;42618;51.226;4.910;2022-12-07T03:31:16;49782.81;;;-146.94;100.00
56737;BME280;42618;51.226;4.910;2022-12-07T03:33:25;49828.69;;;-146.94;100.00
56737;BME280;42618;51.226;4.910;2022-12-07T03:36:02;49816.72;;;-146.94;100.00
56737;BME280;42618;51.226;4.910;2022-12-07T03:41:09;49814.72;;;-146.94;100.00
56737;BME280;42618;51.226;4.910;2022-12-07T03:43:37;49814.72;;;-146.94;100.00
56737;BME280;42618;51.226;4.910;2022-12-07T03:48:55;49810.75;;;-146.94;100.00
56737;BME280;42618;51.226;4.910;2022-12-07T03:51:28;49836.66;;;-146.94;100.00
56737;BME280;42618;51.226;4.910;2022-12-07T03:54:05;49798.78;;;-146.94;100.00
56737;BME280;42618;51.226;4.910;2022-12-07T03:56:34;49860.56;;;-146.94;100.00
56737;BME280;42618;51.226;4.910;2022-12-07T03:59:01;49794.78;;;-146.94;100.00
56737;BME280;42618;51.226;4.910;2022-12-07T04:01:28;49800.78;;;-146.94;100.00
56737;BME280;42618;51.226;4.910;2022-12-07T04:03:55;49826.69;;;-146.94;100.00
56737;BME280;42618;51.226;4.910;2022-12-07T04:06:22;49806.75;;;-146.94;100.00
56737;BME280;42618;51.226;4.910;2022-12-07T04:08:48;49812.72;;;-146.94;100.00
56737;BME280;42618;51.226;4.910;2022-12-07T04:11:15;49770.88;;;-146.94;100.00
56737;BME280;42618;51.226;4.910;2022-12-07T04:13:41;49814.72;;;-146.94;100.00
56737;BME280;42618;51.226;4.910;2022-12-07T04:16:27;49802.75;;;-146.94;100.00
56737;BME280;42618;51.226;4.910;2022-12-07T04:18:53;49794.78;;;-146.94;100.00
56737;BME280;42618;51.226;4.910;2022-12-07T04:21:20;49842.63;;;-146.94;100.00
56737;BME280;42618;51.226;4.910;2022-12-07T04:23:46;49810.75;;;-146.94;100.00
56737;BME280;42618;51.226;4.910;2022-12-07T04:26:13;49798.78;;;-146.94;100.00
56737;BME280;42618;51.226;4.910;2022-12-07T04:28:40;49836.66;;;-146.94;100.00
56737;BME280;42618;51.226;4.910;2022-12-07T04:31:06;49818.72;;;-146.94;100.00
56737;BME280;42618;51.226;4.910;2022-12-07T04:33:35;49794.78;;;-146.94;100.00
56737;BME280;42618;51.226;4.910;2022-12-07T04:36:01;49868.56;;;-146.94;100.00
56737;BME280;42618;51.226;4.910;2022-12-07T04:38:29;49842.63;;;-146.94;100.00
56737;BME280;42618;51.226;4.910;2022-12-07T04:40:55;49828.69;;;-146.94;100.00
56737;BME280;42618;51.226;4.910;2022-12-07T04:43:22;49792.78;;;-146.94;100.00
56737;BME280;42618;51.226;4.910;2022-12-07T04:45:48;49806.75;;;-146.94;100.00
56737;BME280;42618;51.226;4.910;2022-12-07T04:48:17;49804.75;;;-146.94;100.00
56737;BME280;42618;51.226;4.910;2022-12-07T04:50:43;49840.63;;;-146.94;100.00
56737;BME280;42618;51.226;4.910;2022-12-07T04:53:12;49804.75;;;-146.94;100.00
56737;BME280;42618;51.226;4.910;2022-12-07T04:55:38;49840.63;;;-146.94;100.00
56737;BME280;42618;51.226;4.910;2022-12-07T04:58:05;49824.69;;;-146.94;100.00
56737;BME280;42618;51.226;4.910;2022-12-07T05:00:32;49842.63;;;-146.94;100.00
56737;BME280;42618;51.226;4.910;2022-12-07T05:02:58;49818.72;;;-146.94;100.00
56737;BME280;42618;51.226;4.910;2022-12-07T05:05:25;49814.72;;;-146.94;100.00
56737;BME280;42618;51.226;4.910;2022-12-07T05:07:52;49838.66;;;-146.94;100.00
56737;BME280;42618;51.226;4.910;2022-12-07T05:10:20;49844.63;;;-146.94;100.00
56737;BME280;42618;51.226;4.910;2022-12-07T05:12:46;49790.81;;;-146.94;100.00
56737;BME280;42618;51.226;4.910;2022-12-07T05:15:14;49810.75;;;-146.94;100.00
56737;BME280;42618;51.226;4.910;2022-12-07T05:17:41;49822.69;;;-146.94;100.00
56737;BME280;42618;51.226;4.910;2022-12-07T05:20:08;49794.78;;;-146.94;100.00
56737;BME280;42618;51.226;4.910;2022-12-07T05:22:35;49824.69;;;-146.94;100.00
56737;BME280;42618;51.226;4.910;2022-12-07T05:25:02;49830.66;;;-146.94;100.00
56737;BME280;42618;51.226;4.910;2022-12-07T05:27:28;49802.75;;;-146.94;100.00
56737;BME280;42618;51.226;4.910;2022-12-07T05:29:55;49796.78;;;-146.94;100.00
56737;BME280;42618;51.226;4.910;2022-12-07T05:32:22;49804.75;;;-146.94;100.00
56737;BME280;42618;51.226;4.910;2022-12-07T05:34:48;49806.75;;;-146.94;100.00
56737;BME280;42618;51.226;4.910;2022-12-07T05:37:15;49834.66;;;-146.94;100.00
56737;BME280;42618;51.226;4.910;2022-12-07T05:39:42;49814.72;;;-146.94;100.00
56737;BME280;42618;51.226;4.910;2022-12-07T05:42:10;49832.66;;;-146.94;100.00
56737;BME280;42618;51.226;4.910;2022-12-07T05:44:41;49822.69;;;-146.94;100.00
56737;BME280;42618;51.226;4.910;2022-12-07T05:47:08;49834.66;;;-146.94;100.00
56737;BME280;42618;51.226;4.910;2022-12-07T05:49:35;49826.69;;;-146.94;100.00
56737;BME280;42618;51.226;4.910;2022-12-07T05:52:01;49846.63;;;-146.94;100.00
56737;BME280;42618;51.226;4.910;2022-12-07T05:54:29;49806.75;;;-146.94;100.00
56737;BME280;42618;51.226;4.910;2022-12-07T05:56:55;49850.59;;;-146.94;100.00
56737;BME280;42618;51.226;4.910;2022-12-07T05:59:22;49820.69;;;-146.94;100.00
56737;BME280;42618;51.226;4.910;2022-12-07T06:01:53;49786.81;;;-146.94;100.00
56737;BME280;42618;51.226;4.910;2022-12-07T06:04:21;49812.72;;;-146.94;100.00
56737;BME280;42618;51.226;4.910;2022-12-07T06:06:48;49790.81;;;-146.94;100.00
56737;BME280;42618;51.226;4.910;2022-12-07T06:09:14;49850.59;;;-146.94;100.00
56737;BME280;42618;51.226;4.910;2022-12-07T06:11:41;49842.63;;;-146.94;100.00
56737;BME280;42618;51.226;4.910;2022-12-07T06:14:26;49826.69;;;-146.94;100.00
56737;BME280;42618;51.226;4.910;2022-12-07T06:16:53;49786.81;;;-146.94;100.00
56737;BME280;42618;51.226;4.910;2022-12-07T06:19:20;49826.69;;;-146.94;100.00
56737;BME280;42618;51.226;4.910;2022-12-07T06:21:47;49862.56;;;-146.94;100.00
56737;BME280;42618;51.226;4.910;2022-12-07T06:24:15;49820.69;;;-146.94;100.00
56737;BME280;42618;51.226;4.910;2022-12-07T06:26:42;49806.75;;;-146.94;100.00
56737;BME280;42618;51.226;4.910;2022-12-07T06:29:09;49796.78;;;-146.94;100.00
56737;BME280;42618;51.226;4.910;2022-12-07T06:31:37;49858.59;;;-146.94;100.00
56737;BME280;42618;51.226;4.910;2022-12-07T06:34:15;49798.78;;;-146.94;100.00
56737;BME280;42618;51.226;4.910;2022-12-07T06:36:42;49832.66;;;-146.94;100.00
56737;BME280;42618;51.226;4.910;2022-12-07T06:39:08;49852.59;;;-146.94;100.00
56737;BME280;42618;51.226;4.910;2022-12-07T06:41:38;49816.72;;;-146.94;100.00
56737;BME280;42618;51.226;4.910;2022-12-07T06:44:06;49842.63;;;-146.94;100.00
56737;BME280;42618;51.226;4.910;2022-12-07T06:46:33;49834.66;;;-146.94;100.00
56737;BME280;42618;51.226;4.910;2022-12-07T06:49:02;49818.72;;;-146.94;100.00
56737;BME280;42618;51.226;4.910;2022-12-07T06:51:30;49834.66;;;-146.94;100.00
56737;BME280;42618;51.226;4.910;2022-12-07T06:53:57;49836.66;;;-146.94;100.00
56737;BME280;42618;51.226;4.910;2022-12-07T06:56:23;49854.59;;;-146.94;100.00
56737;BME280;42618;51.226;4.910;2022-12-07T06:58:50;49834.66;;;-146.94;100.00
56737;BME280;42618;51.226;4.910;2022-12-07T07:01:18;49822.69;;;-146.94;100.00
56737;BME280;42618;51.226;4.910;2022-12-07T07:03:45;49846.63;;;-146.94;100.00
56737;BME280;42618;51.226;4.910;2022-12-07T07:06:13;49842.63;;;-146.94;100.00
56737;BME280;42618;51.226;4.910;2022-12-07T07:08:40;49806.75;;;-146.94;100.00
56737;BME280;42618;51.226;4.910;2022-12-07T07:11:08;49838.66;;;-146.94;100.00
56737;BME280;42618;51.226;4.910;2022-12-07T07:13:35;49828.69;;;-146.94;100.00
56737;BME280;42618;51.226;4.910;2022-12-07T07:16:02;49854.59;;;-146.94;100.00
56737;BME280;42618;51.226;4.910;2022-12-07T07:18:29;49812.72;;;-146.94;100.00
56737;BME280;42618;51.226;4.910;2022-12-07T07:20:56;49860.56;;;-146.94;100.00
56737;BME280;42618;51.226;4.910;2022-12-07T07:23:23;49826.69;;;-146.94;100.00
56737;BME280;42618;51.226;4.910;2022-12-07T07:25:50;49858.59;;;-146.94;100.00
56737;BME280;42618;51.226;4.910;2022-12-07T07:28:16;49868.56;;;-146.94;100.00
56737;BME280;42618;51.226;4.910;2022-12-07T07:30:43;49818.72;;;-146.94;100.00
56737;BME280;42618;51.226;4.910;2022-12-07T07:33:11;49836.66;;;-146.94;100.00
56737;BME280;42618;51.226;4.910;2022-12-07T07:35:38;49868.56;;;-146.94;100.00
56737;BME280;42618;51.226;4.910;2022-12-07T07:38:06;49826.69;;;-146.94;100.00
56737;BME280;42618;51.226;4.910;2022-12-07T07:40:33;49816.72;;;-146.94;100.00
56737;BME280;42618;51.226;4.910;2022-12-07T07:43:00;49838.66;;;-146.94;100.00
56737;BME280;42618;51.226;4.910;2022-12-07T07:45:27;49830.66;;;-146.94;100.00
56737;BME280;42618;51.226;4.910;2022-12-07T07:47:54;49826.69;;;-146.94;100.00
56737;BME280;42618;51.226;4.910;2022-12-07T07:50:20;49808.75;;;-146.94;100.00
56737;BME280;42618;51.226;4.910;2022-12-07T07:52:47;49838.66;;;-146.94;100.00
56737;BME280;42618;51.226;4.910;2022-12-07T07:55:14;49824.69;;;-146.94;100.00
56737;BME280;42618;51.226;4.910;2022-12-07T07:57:41;49834.66;;;-146.94;100.00
56737;BME280;42618;51.226;4.910;2022-12-07T08:00:11;49792.78;;;-146.94;100.00
56737;BME280;42618;51.226;4.910;2022-12-07T08:02:39;49826.69;;;-146.94;100.00
56737;BME280;42618;51.226;4.910;2022-12-07T08:05:06;49862.56;;;-146.94;100.00
56737;BME280;42618;51.226;4.910;2022-12-07T08:07:33;49836.66;;;-146.94;100.00
56737;BME280;42618;51.226;4.910;2022-12-07T08:10:00;49808.75;;;-146.94;100.00
56737;BME280;42618;51.226;4.910;2022-12-07T08:12:28;49826.69;;;-146.94;100.00
56737;BME280;42618;51.226;4.910;2022-12-07T08:14:56;49826.69;;;-146.94;100.00
56737;BME280;42618;51.226;4.910;2022-12-07T08:17:23;49842.63;;;-146.94;100.00
56737;BME280;42618;51.226;4.910;2022-12-07T08:19:50;49848.63;;;-146.94;100.00
56737;BME280;42618;51.226;4.910;2022-12-07T08:22:16;49820.69;;;-146.94;100.00
56737;BME280;42618;51.226;4.910;2022-12-07T08:24:43;49808.75;;;-146.94;100.00
56737;BME280;42618;51.226;4.910;2022-12-07T08:27:10;49812.72;;;-146.94;100.00
56737;BME280;42618;51.226;4.910;2022-12-07T08:29:38;49862.56;;;-146.94;100.00
56737;BME280;42618;51.226;4.910;2022-12-07T08:32:05;49814.72;;;-146.94;100.00
56737;BME280;42618;51.226;4.910;2022-12-07T08:34:35;49802.75;;;-146.94;100.00
56737;BME280;42618;51.226;4.910;2022-12-07T08:37:03;49820.69;;;-146.94;100.00
56737;BME280;42618;51.226;4.910;2022-12-07T08:39:30;49810.75;;;-146.94;100.00
56737;BME280;42618;51.226;4.910;2022-12-07T08:41:58;49824.69;;;-146.94;100.00
56737;BME280;42618;51.226;4.910;2022-12-07T08:44:25;49822.69;;;-146.94;100.00
56737;BME280;42618;51.226;4.910;2022-12-07T08:46:58;49820.69;;;-146.94;100.00
56737;BME280;42618;51.226;4.910;2022-12-07T08:49:31;49846.63;;;-146.94;100.00
56737;BME280;42618;51.226;4.910;2022-12-07T08:52:01;49818.72;;;-146.94;100.00
56737;BME280;42618;51.226;4.910;2022-12-07T08:54:30;49824.69;;;-146.94;100.00
56737;BME280;42618;51.226;4.910;2022-12-07T08:56:56;49840.63;;;-146.94;100.00
56737;BME280;42618;51.226;4.910;2022-12-07T08:59:26;49824.69;;;-146.94;100.00
56737;BME280;42618;51.226;4.910;2022-12-07T09:01:53;49810.75;;;-146.94;100.00
56737;BME280;42618;51.226;4.910;2022-12-07T09:04:20;49830.66;;;-146.94;100.00
56737;BME280;42618;51.226;4.910;2022-12-07T09:06:47;49818.72;;;-146.94;100.00
56737;BME280;42618;51.226;4.910;2022-12-07T09:09:14;49806.75;;;-146.94;100.00
56737;BME280;42618;51.226;4.910;2022-12-07T09:11:41;49774.84;;;-146.94;100.00
56737;BME280;42618;51.226;4.910;2022-12-07T09:14:08;49800.78;;;-146.94;100.00
56737;BME280;42618;51.226;4.910;2022-12-07T09:16:35;49808.75;;;-146.94;100.00
56737;BME280;42618;51.226;4.910;2022-12-07T09:19:02;49808.75;;;-146.94;100.00
56737;BME280;42618;51.226;4.910;2022-12-07T09:21:29;49836.66;;;-146.94;100.00
56737;BME280;42618;51.226;4.910;2022-12-07T09:23:56;49804.75;;;-146.94;100.00
56737;BME280;42618;51.226;4.910;2022-12-07T09:26:22;49810.75;;;-146.94;100.00
56737;BME280;42618;51.226;4.910;2022-12-07T09:28:49;49844.63;;;-146.94;100.00
56737;BME280;42618;51.226;4.910;2022-12-07T09:31:16;49834.66;;;-146.94;100.00
56737;BME280;42618;51.226;4.910;2022-12-07T09:33:59;49834.66;;;-146.94;100.00
56737;BME280;42618;51.226;4.910;2022-12-07T09:36:27;49780.84;;;-146.94;100.00
56737;BME280;42618;51.226;4.910;2022-12-07T09:38:55;49778.84;;;-146.94;100.00
56737;BME280;42618;51.226;4.910;2022-12-07T09:41:24;49818.72;;;-146.94;100.00
56737;BME280;42618;51.226;4.910;2022-12-07T09:43:52;49778.84;;;-146.94;100.00
56737;BME280;42618;51.226;4.910;2022-12-07T09:46:20;49814.72;;;-146.94;100.00
56737;BME280;42618;51.226;4.910;2022-12-07T09:48:47;49810.75;;;-146.94;100.00
56737;BME280;42618;51.226;4.910;2022-12-07T09:51:19;49842.63;;;-146.94;100.00
56737;BME280;42618;51.226;4.910;2022-12-07T09:53:52;49802.75;;;-146.94;100.00
56737;BME280;42618;51.226;4.910;2022-12-07T09:56:21;49808.75;;;-146.94;100.00
56737;BME280;42618;51.226;4.910;2022-12-07T09:58:48;49822.69;;;-146.94;100.00
56737;BME280;42618;51.226;4.910;2022-12-07T10:01:18;49814.72;;;-146.94;100.00
56737;BME280;42618;51.226;4.910;2022-12-07T10:03:59;49778.84;;;-146.94;100.00
56737;BME280;42618;51.226;4.910;2022-12-07T10:06:28;49770.88;;;-146.94;100.00
56737;BME280;42618;51.226;4.910;2022-12-07T10:08:55;49792.78;;;-146.94;100.00
56737;BME280;42618;51.226;4.910;2022-12-07T10:11:22;49810.75;;;-146.94;100.00
56737;BME280;42618;51.226;4.910;2022-12-07T10:13:52;49798.78;;;-146.94;100.00
56737;BME280;42618;51.226;4.910;2022-12-07T10:18:51;49786.81;;;-146.94;100.00
56737;BME280;42618;51.226;4.910;2022-12-07T10:21:27;49736.97;;;-146.94;100.00
56737;BME280;42618;51.226;4.910;2022-12-07T10:26:41;49756.91;;;-146.94;100.00
56737;BME280;42618;51.226;4.910;2022-12-07T10:29:29;49806.75;;;-146.94;100.00
56737;BME280;42618;51.226;4.910;2022-12-07T10:32:01;49786.81;;;-146.94;100.00
56737;BME280;42618;51.226;4.910;2022-12-07T10:34:35;49768.88;;;-146.94;100.00
56737;BME280;42618;51.226;4.910;2022-12-07T10:42:20;49824.69;;;-146.94;100.00
56737;BME280;42618;51.226;4.910;2022-12-07T10:44:48;49816.72;;;-146.94;100.00
56737;BME280;42618;51.226;4.910;2022-12-07T10:47:36;49802.75;;;-146.94;100.00
56737;BME280;42618;51.226;4.910;2022-12-07T11:05:19;49802.75;;;-146.94;100.00
56737;BME280;42618;51.226;4.910;2022-12-07T11:08:04;49794.78;;;-146.94;100.00
56737;BME280;42618;51.226;4.910;2022-12-07T11:11:01;49772.84;;;-146.94;100.00
56737;BME280;42618;51.226;4.910;2022-12-07T11:13:48;49812.72;;;-146.94;100.00
56737;BME280;42618;51.226;4.910;2022-12-07T11:21:57;49788.81;;;-146.94;100.00
56737;BME280;42618;51.226;4.910;2022-12-07T11:27:09;49772.84;;;-146.94;100.00
56737;BME280;42618;51.226;4.910;2022-12-07T11:32:39;49778.84;;;-146.94;100.00
56737;BME280;42618;51.226;4.910;2022-12-07T11:35:13;49790.81;;;-146.94;100.00
56737;BME280;42618;51.226;4.910;2022-12-07T11:37:51;49814.72;;;-146.94;100.00
56737;BME280;42618;51.226;4.910;2022-12-07T11:40:27;49800.78;;;-146.94;100.00
56737;BME280;42618;51.226;4.910;2022-12-07T11:45:45;49770.88;;;-146.94;100.00
56737;BME280;42618;51.226;4.910;2022-12-07T11:48:31;49756.91;;;-146.94;100.00
56737;BME280;42618;51.226;4.910;2022-12-07T11:51:01;49754.91;;;-146.94;100.00
56737;BME280;42618;51.226;4.910;2022-12-07T11:54:13;49796.78;;;-146.94;100.00
56737;BME280;42618;51.226;4.910;2022-12-07T11:56:30;49758.91;;;-146.94;100.00
56737;BME280;42618;51.226;4.910;2022-12-07T11:59:01;49798.78;;;-146.94;100.00
56737;BME280;42618;51.226;4.910;2022-12-07T12:01:45;49796.78;;;-146.94;100.00
56737;BME280;42618;51.226;4.910;2022-12-07T12:04:32;49792.78;;;-146.94;100.00
56737;BME280;42618;51.226;4.910;2022-12-07T12:07:01;49782.81;;;-146.94;100.00
56737;BME280;42618;51.226;4.910;2022-12-07T12:12:46;49800.78;;;-146.94;100.00
56737;BME280;42618;51.226;4.910;2022-12-07T12:21:10;49760.91;;;-146.94;100.00
56737;BME280;42618;51.226;4.910;2022-12-07T12:23:44;49758.91;;;-146.94;100.00
56737;BME280;42618;51.226;4.910;2022-12-07T12:26:21;49798.78;;;-146.94;100.00
56737;BME280;42618;51.226;4.910;2022-12-07T12:36:17;49788.81;;;-146.94;100.00
56737;BME280;42618;51.226;4.910;2022-12-07T12:57:36;49806.75;;;-146.94;100.00
56737;BME280;42618;51.226;4.910;2022-12-07T13:00:20;49794.78;;;-146.94;100.00
56737;BME280;42618;51.226;4.910;2022-12-07T13:02:52;49780.84;;;-146.94;100.00
56737;BME280;42618;51.226;4.910;2022-12-07T13:05:22;49774.84;;;-146.94;100.00
56737;BME280;42618;51.226;4.910;2022-12-07T13:10:48;49796.78;;;-146.94;100.00
56737;BME280;42618;51.226;4.910;2022-12-07T13:15:45;49719.03;;;-146.94;98.78
56737;BME280;42618;51.226;4.910;2022-12-07T13:28:48;49669.19;;;-146.94;78.20
56737;BME280;42618;51.226;4.910;2022-12-07T13:31:25;49734.97;;;-146.94;78.34
56737;BME280;42618;51.226;4.910;2022-12-07T13:33:56;49742.94;;;-146.94;79.83
56737;BME280;42618;51.226;4.910;2022-12-07T13:36:26;49669.19;;;-146.94;79.71
56737;BME280;42618;51.226;4.910;2022-12-07T13:38:58;49665.22;;;-146.94;81.26
56737;BME280;42618;51.226;4.910;2022-12-07T13:41:28;49699.09;;;-146.94;78.61
56737;BME280;42618;51.226;4.910;2022-12-07T13:44:03;49756.91;;;-146.94;85.23
56737;BME280;42618;51.226;4.910;2022-12-07T13:47:13;49742.94;;;-146.94;90.60
56737;BME280;42618;51.226;4.910;2022-12-07T13:49:50;49764.88;;;-146.94;94.87
56737;BME280;42618;51.226;4.910;2022-12-07T13:52:25;49808.75;;;-146.94;97.93
56737;BME280;42618;51.226;4.910;2022-12-07T13:55:13;49723.03;;;-146.94;100.00
56737;BME280;42618;51.226;4.910;2022-12-07T13:57:41;49742.94;;;-146.94;100.00
56737;BME280;42618;51.226;4.910;2022-12-07T14:00:25;49786.81;;;-146.94;100.00
56737;BME280;42618;51.226;4.910;2022-12-07T14:05:32;49768.88;;;-146.94;100.00
56737;BME280;42618;51.226;4.910;2022-12-07T14:08:01;49802.75;;;-146.94;100.00
56737;BME280;42618;51.226;4.910;2022-12-07T14:10:31;49756.91;;;-146.94;100.00
56737;BME280;42618;51.226;4.910;2022-12-07T14:13:00;49792.78;;;-146.94;100.00
56737;BME280;42618;51.226;4.910;2022-12-07T14:15:33;49742.94;;;-146.94;100.00
56737;BME280;42618;51.226;4.910;2022-12-07T14:18:02;49756.91;;;-146.94;100.00
56737;BME280;42618;51.226;4.910;2022-12-07T14:20:38;49798.78;;;-146.94;100.00
56737;BME280;42618;51.226;4.910;2022-12-07T14:23:22;49772.84;;;-146.94;100.00
56737;BME280;42618;51.226;4.910;2022-12-07T14:25:51;49796.78;;;-146.94;100.00
56737;BME280;42618;51.226;4.910;2022-12-07T14:28:26;49802.75;;;-146.94;100.00
56737;BME280;42618;51.226;4.910;2022-12-07T14:30:53;49778.84;;;-146.94;100.00
56737;BME280;42618;51.226;4.910;2022-12-07T14:33:21;49790.81;;;-146.94;100.00
56737;BME280;42618;51.226;4.910;2022-12-07T14:35:48;49802.75;;;-146.94;100.00
56737;BME280;42618;51.226;4.910;2022-12-07T14:38:15;49826.69;;;-146.94;100.00
56737;BME280;42618;51.226;4.910;2022-12-07T14:40:44;49820.69;;;-146.94;100.00
56737;BME280;42618;51.226;4.910;2022-12-07T14:43:12;49770.88;;;-146.94;100.00
56737;BME280;42618;51.226;4.910;2022-12-07T14:45:40;49776.84;;;-146.94;100.00
56737;BME280;42618;51.226;4.910;2022-12-07T14:48:11;49786.81;;;-146.94;100.00
56737;BME280;42618;51.226;4.910;2022-12-07T14:50:57;49808.75;;;-146.94;100.00
56737;BME280;42618;51.226;4.910;2022-12-07T14:53:47;49804.75;;;-146.94;100.00
56737;BME280;42618;51.226;4.910;2022-12-07T14:56:23;49778.84;;;-146.94;100.00
56737;BME280;42618;51.226;4.910;2022-12-07T14:58:50;49802.75;;;-146.94;100.00